Terminal Aerodrome Forecast
Issued by NWS

Home | Current Version | Previous Version | Text Only | Print | Product List | Glossary On
Versions: 1 2 3 4 5 6 7 8 9 10 11 12 13 14 15 16 17
802
FTUS45 KFGZ 272342 CCA
TAFGCN
TAF COR
KGCN 272342Z 2800/2824 22006KT P6SM SCT050 BKN150
      TEMPO 2800/2802 VRB10G20KT 6SM -SHRA BKN040
     FM280300 VRB05KT P6SM SCT060 PROB30 2818/2824 5SM -TSRA
      BKN050CB=

USA.gov is the U.S. government's official web portal to all federal, state and local government web resources and services.